sensor_id;sensor_type;location;lat;lon;timestamp;temperature;humidity
70368;DHT22;57789;53.868;10.728;2023-04-25T00:01:47;7.50;99.90
70368;DHT22;57789;53.868;10.728;2023-04-25T00:04:13;7.60;99.90
70368;DHT22;57789;53.868;10.728;2023-04-25T00:06:38;7.60;99.90
70368;DHT22;57789;53.868;10.728;2023-04-25T00:09:05;7.60;99.90
70368;DHT22;57789;53.868;10.728;2023-04-25T00:11:33;7.60;99.90
70368;DHT22;57789;53.868;10.728;2023-04-25T00:13:59;7.60;99.90
70368;DHT22;57789;53.868;10.728;2023-04-25T00:16:27;7.60;99.90
70368;DHT22;57789;53.868;10.728;2023-04-25T00:18:54;7.60;99.90
70368;DHT22;57789;53.868;10.728;2023-04-25T00:21:20;7.70;99.90
70368;DHT22;57789;53.868;10.728;2023-04-25T00:23:47;7.70;99.90
70368;DHT22;57789;53.868;10.728;2023-04-25T00:26:12;7.70;99.90
70368;DHT22;57789;53.868;10.728;2023-04-25T00:28:39;7.60;99.90
70368;DHT22;57789;53.868;10.728;2023-04-25T00:31:06;7.60;99.90
70368;DHT22;57789;53.868;10.728;2023-04-25T00:33:31;7.60;99.90
70368;DHT22;57789;53.868;10.728;2023-04-25T00:35:57;7.60;99.90
70368;DHT22;57789;53.868;10.728;2023-04-25T00:38:23;7.70;99.90
70368;DHT22;57789;53.868;10.728;2023-04-25T00:40:49;7.60;99.90
70368;DHT22;57789;53.868;10.728;2023-04-25T00:43:14;7.60;99.90
70368;DHT22;57789;53.868;10.728;2023-04-25T00:45:40;7.60;99.90
70368;DHT22;57789;53.868;10.728;2023-04-25T00:48:08;7.60;99.90
70368;DHT22;57789;53.868;10.728;2023-04-25T00:50:34;7.60;99.90
70368;DHT22;57789;53.868;10.728;2023-04-25T00:53:01;7.60;99.90
70368;DHT22;57789;53.868;10.728;2023-04-25T00:55:27;7.70;99.90
70368;DHT22;57789;53.868;10.728;2023-04-25T00:57:53;7.60;99.90
70368;DHT22;57789;53.868;10.728;2023-04-25T01:00:19;7.60;99.90
70368;DHT22;57789;53.868;10.728;2023-04-25T01:02:46;7.60;99.90
70368;DHT22;57789;53.868;10.728;2023-04-25T01:05:12;7.60;99.90
70368;DHT22;57789;53.868;10.728;2023-04-25T01:07:39;7.50;99.90
70368;DHT22;57789;53.868;10.728;2023-04-25T01:10:05;7.50;99.90
70368;DHT22;57789;53.868;10.728;2023-04-25T01:12:32;7.40;99.90
70368;DHT22;57789;53.868;10.728;2023-04-25T01:14:57;7.40;99.90
70368;DHT22;57789;53.868;10.728;2023-04-25T01:17:23;7.40;99.90
70368;DHT22;57789;53.868;10.728;2023-04-25T01:19:49;7.40;99.90
70368;DHT22;57789;53.868;10.728;2023-04-25T01:22:16;7.30;99.90
70368;DHT22;57789;53.868;10.728;2023-04-25T01:24:43;7.30;99.90
70368;DHT22;57789;53.868;10.728;2023-04-25T01:27:09;7.30;99.90
70368;DHT22;57789;53.868;10.728;2023-04-25T01:29:44;7.20;99.90
70368;DHT22;57789;53.868;10.728;2023-04-25T01:32:13;7.20;99.90
70368;DHT22;57789;53.868;10.728;2023-04-25T01:34:40;7.20;99.90
70368;DHT22;57789;53.868;10.728;2023-04-25T01:37:06;7.20;99.90
70368;DHT22;57789;53.868;10.728;2023-04-25T01:39:32;7.20;99.90
70368;DHT22;57789;53.868;10.728;2023-04-25T01:41:59;7.20;99.90
70368;DHT22;57789;53.868;10.728;2023-04-25T01:44:25;7.20;99.90
70368;DHT22;57789;53.868;10.728;2023-04-25T01:46:51;7.20;99.90
70368;DHT22;57789;53.868;10.728;2023-04-25T01:49:17;7.10;99.90
70368;DHT22;57789;53.868;10.728;2023-04-25T01:51:43;7.10;99.90
70368;DHT22;57789;53.868;10.728;2023-04-25T01:54:10;7.10;99.90
70368;DHT22;57789;53.868;10.728;2023-04-25T01:56:37;7.10;99.90
70368;DHT22;57789;53.868;10.728;2023-04-25T01:59:06;7.10;99.90
70368;DHT22;57789;53.868;10.728;2023-04-25T02:01:32;7.10;99.90
70368;DHT22;57789;53.868;10.728;2023-04-25T02:03:58;7.10;99.90
70368;DHT22;57789;53.868;10.728;2023-04-25T02:06:24;7.00;99.90
70368;DHT22;57789;53.868;10.728;2023-04-25T02:08:50;7.00;99.90
70368;DHT22;57789;53.868;10.728;2023-04-25T02:11:26;7.00;99.90
70368;DHT22;57789;53.868;10.728;2023-04-25T02:13:52;7.00;99.90
70368;DHT22;57789;53.868;10.728;2023-04-25T02:16:17;7.00;99.90
70368;DHT22;57789;53.868;10.728;2023-04-25T02:18:44;7.00;99.90
70368;DHT22;57789;53.868;10.728;2023-04-25T02:21:10;7.00;99.90
70368;DHT22;57789;53.868;10.728;2023-04-25T02:23:37;7.00;99.90
70368;DHT22;57789;53.868;10.728;2023-04-25T02:26:03;6.90;99.90
70368;DHT22;57789;53.868;10.728;2023-04-25T02:28:29;6.90;99.90
70368;DHT22;57789;53.868;10.728;2023-04-25T02:30:55;6.90;99.90
70368;DHT22;57789;53.868;10.728;2023-04-25T02:33:20;6.90;99.90
70368;DHT22;57789;53.868;10.728;2023-04-25T02:35:46;6.80;99.90
70368;DHT22;57789;53.868;10.728;2023-04-25T02:38:12;6.80;99.90
70368;DHT22;57789;53.868;10.728;2023-04-25T02:40:38;6.80;99.90
70368;DHT22;57789;53.868;10.728;2023-04-25T02:43:03;6.80;99.90
70368;DHT22;57789;53.868;10.728;2023-04-25T02:45:29;6.70;99.90
70368;DHT22;57789;53.868;10.728;2023-04-25T02:47:56;6.70;99.90
70368;DHT22;57789;53.868;10.728;2023-04-25T02:50:21;6.70;99.90
70368;DHT22;57789;53.868;10.728;2023-04-25T02:52:47;6.60;99.90
70368;DHT22;57789;53.868;10.728;2023-04-25T02:55:13;6.60;99.90
70368;DHT22;57789;53.868;10.728;2023-04-25T02:57:39;6.60;99.90
70368;DHT22;57789;53.868;10.728;2023-04-25T03:00:05;6.60;99.90
70368;DHT22;57789;53.868;10.728;2023-04-25T03:02:32;6.60;99.90
70368;DHT22;57789;53.868;10.728;2023-04-25T03:04:57;6.60;99.90
70368;DHT22;57789;53.868;10.728;2023-04-25T03:07:23;6.50;99.90
70368;DHT22;57789;53.868;10.728;2023-04-25T03:09:49;6.50;99.90
70368;DHT22;57789;53.868;10.728;2023-04-25T03:12:15;6.50;99.90
70368;DHT22;57789;53.868;10.728;2023-04-25T03:14:41;6.40;99.90
70368;DHT22;57789;53.868;10.728;2023-04-25T03:17:08;6.40;99.90
70368;DHT22;57789;53.868;10.728;2023-04-25T03:19:38;6.30;99.90
70368;DHT22;57789;53.868;10.728;2023-04-25T03:22:09;6.30;99.90
70368;DHT22;57789;53.868;10.728;2023-04-25T03:24:35;6.20;99.90
70368;DHT22;57789;53.868;10.728;2023-04-25T03:27:04;6.20;99.90
70368;DHT22;57789;53.868;10.728;2023-04-25T03:29:39;6.20;99.90
70368;DHT22;57789;53.868;10.728;2023-04-25T03:32:09;6.10;99.90
70368;DHT22;57789;53.868;10.728;2023-04-25T03:34:36;6.10;99.90
70368;DHT22;57789;53.868;10.728;2023-04-25T03:37:06;6.00;99.90
70368;DHT22;57789;53.868;10.728;2023-04-25T03:39:33;6.00;99.90
70368;DHT22;57789;53.868;10.728;2023-04-25T03:41:59;5.90;99.90
70368;DHT22;57789;53.868;10.728;2023-04-25T03:44:31;5.90;99.90
70368;DHT22;57789;53.868;10.728;2023-04-25T03:46:58;5.80;99.90
70368;DHT22;57789;53.868;10.728;2023-04-25T03:49:25;5.80;99.90
70368;DHT22;57789;53.868;10.728;2023-04-25T03:51:51;5.80;99.90
70368;DHT22;57789;53.868;10.728;2023-04-25T03:57:30;5.80;99.90
70368;DHT22;57789;53.868;10.728;2023-04-25T03:59:56;5.80;99.90
70368;DHT22;57789;53.868;10.728;2023-04-25T04:02:21;5.80;99.90
70368;DHT22;57789;53.868;10.728;2023-04-25T04:04:47;5.70;99.90
70368;DHT22;57789;53.868;10.728;2023-04-25T04:07:13;5.70;99.90
70368;DHT22;57789;53.868;10.728;2023-04-25T04:09:39;5.70;99.90
70368;DHT22;57789;53.868;10.728;2023-04-25T04:12:04;5.70;99.90
70368;DHT22;57789;53.868;10.728;2023-04-25T04:14:30;5.60;99.90
70368;DHT22;57789;53.868;10.728;2023-04-25T04:16:56;5.60;99.90
70368;DHT22;57789;53.868;10.728;2023-04-25T04:19:21;5.60;99.90
70368;DHT22;57789;53.868;10.728;2023-04-25T04:21:47;5.60;99.90
70368;DHT22;57789;53.868;10.728;2023-04-25T04:24:13;5.60;99.90
70368;DHT22;57789;53.868;10.728;2023-04-25T04:26:40;5.60;99.90
70368;DHT22;57789;53.868;10.728;2023-04-25T04:29:05;5.60;99.90
70368;DHT22;57789;53.868;10.728;2023-04-25T04:31:32;5.60;99.90
70368;DHT22;57789;53.868;10.728;2023-04-25T04:33:58;5.60;99.90
70368;DHT22;57789;53.868;10.728;2023-04-25T04:36:23;5.60;99.90
70368;DHT22;57789;53.868;10.728;2023-04-25T04:38:51;5.60;99.90
70368;DHT22;57789;53.868;10.728;2023-04-25T04:41:17;5.60;99.90
70368;DHT22;57789;53.868;10.728;2023-04-25T04:43:44;5.60;99.90
70368;DHT22;57789;53.868;10.728;2023-04-25T04:46:10;5.70;99.90
70368;DHT22;57789;53.868;10.728;2023-04-25T04:48:38;5.70;99.90
70368;DHT22;57789;53.868;10.728;2023-04-25T04:51:05;5.80;99.90
70368;DHT22;57789;53.868;10.728;2023-04-25T04:53:32;5.90;99.90
70368;DHT22;57789;53.868;10.728;2023-04-25T04:55:58;6.00;99.90
70368;DHT22;57789;53.868;10.728;2023-04-25T04:58:23;6.00;99.90
70368;DHT22;57789;53.868;10.728;2023-04-25T05:00:49;6.00;99.90
70368;DHT22;57789;53.868;10.728;2023-04-25T05:03:15;6.00;99.90
70368;DHT22;57789;53.868;10.728;2023-04-25T05:05:41;6.00;99.90
70368;DHT22;57789;53.868;10.728;2023-04-25T05:08:07;6.00;99.90
70368;DHT22;57789;53.868;10.728;2023-04-25T05:10:33;6.00;99.90
70368;DHT22;57789;53.868;10.728;2023-04-25T05:12:58;6.00;99.90
70368;DHT22;57789;53.868;10.728;2023-04-25T05:15:24;6.00;99.90
70368;DHT22;57789;53.868;10.728;2023-04-25T05:17:50;6.00;99.90
70368;DHT22;57789;53.868;10.728;2023-04-25T05:20:16;6.10;99.90
70368;DHT22;57789;53.868;10.728;2023-04-25T05:22:44;6.10;99.90
70368;DHT22;57789;53.868;10.728;2023-04-25T05:25:10;6.10;99.90
70368;DHT22;57789;53.868;10.728;2023-04-25T05:27:35;6.20;99.90
70368;DHT22;57789;53.868;10.728;2023-04-25T05:30:01;6.20;99.90
70368;DHT22;57789;53.868;10.728;2023-04-25T05:32:27;6.30;99.90
70368;DHT22;57789;53.868;10.728;2023-04-25T05:34:52;6.30;99.90
70368;DHT22;57789;53.868;10.728;2023-04-25T05:37:18;6.40;99.90
70368;DHT22;57789;53.868;10.728;2023-04-25T05:39:44;6.40;99.90
70368;DHT22;57789;53.868;10.728;2023-04-25T05:42:09;6.40;99.90
70368;DHT22;57789;53.868;10.728;2023-04-25T05:44:35;6.40;99.90
70368;DHT22;57789;53.868;10.728;2023-04-25T05:47:01;6.40;99.90
70368;DHT22;57789;53.868;10.728;2023-04-25T05:49:30;6.40;99.90
70368;DHT22;57789;53.868;10.728;2023-04-25T05:51:59;6.50;99.90
70368;DHT22;57789;53.868;10.728;2023-04-25T05:54:25;6.40;99.90
70368;DHT22;57789;53.868;10.728;2023-04-25T05:56:50;6.50;99.90
70368;DHT22;57789;53.868;10.728;2023-04-25T05:59:16;6.40;99.90
70368;DHT22;57789;53.868;10.728;2023-04-25T06:01:42;6.50;99.90
70368;DHT22;57789;53.868;10.728;2023-04-25T06:04:07;6.50;99.90
70368;DHT22;57789;53.868;10.728;2023-04-25T06:06:33;6.60;99.90
70368;DHT22;57789;53.868;10.728;2023-04-25T06:08:59;6.70;99.90
70368;DHT22;57789;53.868;10.728;2023-04-25T06:11:24;6.60;99.90
70368;DHT22;57789;53.868;10.728;2023-04-25T06:13:50;6.70;99.90
70368;DHT22;57789;53.868;10.728;2023-04-25T06:16:16;6.80;99.90
70368;DHT22;57789;53.868;10.728;2023-04-25T06:18:41;6.90;99.90
70368;DHT22;57789;53.868;10.728;2023-04-25T06:21:07;6.90;99.90
70368;DHT22;57789;53.868;10.728;2023-04-25T06:23:33;6.80;99.90
70368;DHT22;57789;53.868;10.728;2023-04-25T06:25:59;6.80;99.90
70368;DHT22;57789;53.868;10.728;2023-04-25T06:28:26;6.70;99.90
70368;DHT22;57789;53.868;10.728;2023-04-25T06:30:53;6.80;99.90
70368;DHT22;57789;53.868;10.728;2023-04-25T06:33:19;6.80;99.90
70368;DHT22;57789;53.868;10.728;2023-04-25T06:35:45;7.00;99.90
70368;DHT22;57789;53.868;10.728;2023-04-25T06:38:11;6.90;99.90
70368;DHT22;57789;53.868;10.728;2023-04-25T06:40:37;6.90;99.90
70368;DHT22;57789;53.868;10.728;2023-04-25T06:43:02;6.90;99.90
70368;DHT22;57789;53.868;10.728;2023-04-25T06:45:28;7.00;99.90
70368;DHT22;57789;53.868;10.728;2023-04-25T06:47:54;7.00;99.90
70368;DHT22;57789;53.868;10.728;2023-04-25T06:50:19;6.90;99.90
70368;DHT22;57789;53.868;10.728;2023-04-25T06:52:45;7.00;99.90
70368;DHT22;57789;53.868;10.728;2023-04-25T06:55:11;6.90;99.90
70368;DHT22;57789;53.868;10.728;2023-04-25T06:57:36;7.00;99.90
70368;DHT22;57789;53.868;10.728;2023-04-25T07:00:03;7.00;99.90
70368;DHT22;57789;53.868;10.728;2023-04-25T07:02:32;7.00;99.90
70368;DHT22;57789;53.868;10.728;2023-04-25T07:04:57;7.10;99.90
70368;DHT22;57789;53.868;10.728;2023-04-25T07:07:26;7.20;99.90
70368;DHT22;57789;53.868;10.728;2023-04-25T07:09:51;7.20;99.90
70368;DHT22;57789;53.868;10.728;2023-04-25T07:12:17;7.30;99.90
70368;DHT22;57789;53.868;10.728;2023-04-25T07:14:43;7.40;99.90
70368;DHT22;57789;53.868;10.728;2023-04-25T07:17:08;7.50;99.90
70368;DHT22;57789;53.868;10.728;2023-04-25T07:19:37;7.40;99.90
70368;DHT22;57789;53.868;10.728;2023-04-25T07:22:05;7.30;99.90
70368;DHT22;57789;53.868;10.728;2023-04-25T07:24:31;7.30;99.90
70368;DHT22;57789;53.868;10.728;2023-04-25T07:26:57;7.30;99.90
70368;DHT22;57789;53.868;10.728;2023-04-25T07:29:23;7.10;99.90
70368;DHT22;57789;53.868;10.728;2023-04-25T07:31:49;7.10;99.90
70368;DHT22;57789;53.868;10.728;2023-04-25T07:34:15;7.20;99.90
70368;DHT22;57789;53.868;10.728;2023-04-25T07:36:41;7.20;99.90
70368;DHT22;57789;53.868;10.728;2023-04-25T07:39:07;7.20;99.90
70368;DHT22;57789;53.868;10.728;2023-04-25T07:41:34;7.20;99.90
70368;DHT22;57789;53.868;10.728;2023-04-25T07:44:00;7.40;99.90
70368;DHT22;57789;53.868;10.728;2023-04-25T07:46:26;7.60;99.90
70368;DHT22;57789;53.868;10.728;2023-04-25T07:48:51;7.70;99.90
70368;DHT22;57789;53.868;10.728;2023-04-25T07:51:17;7.70;99.90
70368;DHT22;57789;53.868;10.728;2023-04-25T07:53:45;7.80;99.90
70368;DHT22;57789;53.868;10.728;2023-04-25T07:56:11;8.00;99.90
70368;DHT22;57789;53.868;10.728;2023-04-25T07:58:37;8.10;99.90
70368;DHT22;57789;53.868;10.728;2023-04-25T08:01:03;8.20;99.90
70368;DHT22;57789;53.868;10.728;2023-04-25T08:03:28;8.40;99.90
70368;DHT22;57789;53.868;10.728;2023-04-25T08:05:54;8.10;99.90
70368;DHT22;57789;53.868;10.728;2023-04-25T08:08:20;7.90;99.90
70368;DHT22;57789;53.868;10.728;2023-04-25T08:10:46;7.90;99.90
70368;DHT22;57789;53.868;10.728;2023-04-25T08:13:13;8.00;99.90
70368;DHT22;57789;53.868;10.728;2023-04-25T08:15:39;8.00;99.90
70368;DHT22;57789;53.868;10.728;2023-04-25T08:18:05;8.10;99.90
70368;DHT22;57789;53.868;10.728;2023-04-25T08:20:30;8.10;99.90
70368;DHT22;57789;53.868;10.728;2023-04-25T08:22:56;8.20;99.90
70368;DHT22;57789;53.868;10.728;2023-04-25T08:25:22;8.30;99.90
70368;DHT22;57789;53.868;10.728;2023-04-25T08:27:48;8.20;99.90
70368;DHT22;57789;53.868;10.728;2023-04-25T08:30:14;8.00;99.90
70368;DHT22;57789;53.868;10.728;2023-04-25T08:32:39;8.10;99.90
70368;DHT22;57789;53.868;10.728;2023-04-25T08:35:05;8.40;99.90
70368;DHT22;57789;53.868;10.728;2023-04-25T08:37:32;8.40;99.90
70368;DHT22;57789;53.868;10.728;2023-04-25T08:39:58;8.30;99.90
70368;DHT22;57789;53.868;10.728;2023-04-25T08:42:24;8.40;99.90
70368;DHT22;57789;53.868;10.728;2023-04-25T08:44:50;8.50;99.90
70368;DHT22;57789;53.868;10.728;2023-04-25T08:47:21;8.50;99.90
70368;DHT22;57789;53.868;10.728;2023-04-25T08:49:48;8.80;99.90
70368;DHT22;57789;53.868;10.728;2023-04-25T08:52:15;9.20;99.90
70368;DHT22;57789;53.868;10.728;2023-04-25T08:54:48;9.10;99.90
70368;DHT22;57789;53.868;10.728;2023-04-25T08:57:15;8.80;99.90
70368;DHT22;57789;53.868;10.728;2023-04-25T08:59:41;8.70;99.90
70368;DHT22;57789;53.868;10.728;2023-04-25T09:02:11;8.70;99.90
70368;DHT22;57789;53.868;10.728;2023-04-25T09:04:43;8.50;99.90
70368;DHT22;57789;53.868;10.728;2023-04-25T09:07:09;8.70;99.90
70368;DHT22;57789;53.868;10.728;2023-04-25T09:09:35;8.80;99.90
70368;DHT22;57789;53.868;10.728;2023-04-25T09:12:02;8.70;99.90
70368;DHT22;57789;53.868;10.728;2023-04-25T09:14:27;8.60;99.90
70368;DHT22;57789;53.868;10.728;2023-04-25T09:23:14;8.60;99.90
70368;DHT22;57789;53.868;10.728;2023-04-25T09:25:44;8.70;99.90
70368;DHT22;57789;53.868;10.728;2023-04-25T09:28:11;8.50;99.90
70368;DHT22;57789;53.868;10.728;2023-04-25T09:30:37;8.40;99.90
70368;DHT22;57789;53.868;10.728;2023-04-25T09:33:18;8.20;99.90
70368;DHT22;57789;53.868;10.728;2023-04-25T09:35:44;8.20;99.90
70368;DHT22;57789;53.868;10.728;2023-04-25T09:38:12;8.10;99.90
70368;DHT22;57789;53.868;10.728;2023-04-25T09:40:46;8.30;99.90
70368;DHT22;57789;53.868;10.728;2023-04-25T09:43:19;8.40;99.90
70368;DHT22;57789;53.868;10.728;2023-04-25T09:45:46;8.40;99.90
70368;DHT22;57789;53.868;10.728;2023-04-25T09:48:18;8.40;99.90
70368;DHT22;57789;53.868;10.728;2023-04-25T09:50:44;8.30;99.90
70368;DHT22;57789;53.868;10.728;2023-04-25T09:53:10;8.30;99.90
70368;DHT22;57789;53.868;10.728;2023-04-25T09:55:36;8.30;99.90
70368;DHT22;57789;53.868;10.728;2023-04-25T09:58:06;8.30;99.90
70368;DHT22;57789;53.868;10.728;2023-04-25T10:00:34;8.60;99.90
70368;DHT22;57789;53.868;10.728;2023-04-25T10:03:05;8.80;99.90
70368;DHT22;57789;53.868;10.728;2023-04-25T10:05:33;9.00;99.90
70368;DHT22;57789;53.868;10.728;2023-04-25T10:08:03;9.10;99.90
70368;DHT22;57789;53.868;10.728;2023-04-25T10:10:32;9.20;99.90
70368;DHT22;57789;53.868;10.728;2023-04-25T10:13:03;9.30;99.90
70368;DHT22;57789;53.868;10.728;2023-04-25T10:15:29;9.60;99.90
70368;DHT22;57789;53.868;10.728;2023-04-25T10:17:56;9.90;99.90
70368;DHT22;57789;53.868;10.728;2023-04-25T10:20:32;9.90;99.90
70368;DHT22;57789;53.868;10.728;2023-04-25T10:26:22;9.70;99.90
70368;DHT22;57789;53.868;10.728;2023-04-25T10:29:00;9.10;99.90
70368;DHT22;57789;53.868;10.728;2023-04-25T10:31:26;8.40;99.90
70368;DHT22;57789;53.868;10.728;2023-04-25T10:33:53;7.70;99.90
70368;DHT22;57789;53.868;10.728;2023-04-25T10:36:21;7.40;99.90
70368;DHT22;57789;53.868;10.728;2023-04-25T10:38:48;7.30;99.90
70368;DHT22;57789;53.868;10.728;2023-04-25T10:41:18;7.40;99.90
70368;DHT22;57789;53.868;10.728;2023-04-25T10:43:48;7.40;99.90
70368;DHT22;57789;53.868;10.728;2023-04-25T10:46:25;7.60;99.90
70368;DHT22;57789;53.868;10.728;2023-04-25T10:48:52;8.00;99.90
70368;DHT22;57789;53.868;10.728;2023-04-25T10:51:47;8.30;99.90
70368;DHT22;57789;53.868;10.728;2023-04-25T10:54:13;8.30;99.90
70368;DHT22;57789;53.868;10.728;2023-04-25T10:56:43;8.40;99.90
70368;DHT22;57789;53.868;10.728;2023-04-25T10:59:15;8.60;99.90
70368;DHT22;57789;53.868;10.728;2023-04-25T11:01:45;8.50;99.90
70368;DHT22;57789;53.868;10.728;2023-04-25T11:04:30;8.40;99.90
70368;DHT22;57789;53.868;10.728;2023-04-25T11:10:09;8.60;99.90
70368;DHT22;57789;53.868;10.728;2023-04-25T11:12:35;8.60;99.90
70368;DHT22;57789;53.868;10.728;2023-04-25T11:15:11;8.80;99.90
70368;DHT22;57789;53.868;10.728;2023-04-25T11:21:20;8.60;99.90
70368;DHT22;57789;53.868;10.728;2023-04-25T11:23:46;8.80;99.90
70368;DHT22;57789;53.868;10.728;2023-04-25T11:26:13;8.90;99.90
70368;DHT22;57789;53.868;10.728;2023-04-25T11:28:45;9.00;99.90
70368;DHT22;57789;53.868;10.728;2023-04-25T11:31:10;9.40;99.90
70368;DHT22;57789;53.868;10.728;2023-04-25T11:33:36;9.60;99.90
70368;DHT22;57789;53.868;10.728;2023-04-25T11:36:02;9.80;99.90
70368;DHT22;57789;53.868;10.728;2023-04-25T11:38:28;10.40;99.90
70368;DHT22;57789;53.868;10.728;2023-04-25T11:40:56;10.40;99.90
70368;DHT22;57789;53.868;10.728;2023-04-25T11:43:26;10.30;99.90
70368;DHT22;57789;53.868;10.728;2023-04-25T11:45:54;10.30;99.90
70368;DHT22;57789;53.868;10.728;2023-04-25T11:48:21;10.10;99.90
70368;DHT22;57789;53.868;10.728;2023-04-25T11:50:46;10.00;99.90
70368;DHT22;57789;53.868;10.728;2023-04-25T11:53:14;9.60;99.90
70368;DHT22;57789;53.868;10.728;2023-04-25T11:55:40;9.10;99.90
70368;DHT22;57789;53.868;10.728;2023-04-25T11:58:06;8.10;99.90
70368;DHT22;57789;53.868;10.728;2023-04-25T12:00:32;7.70;99.90
70368;DHT22;57789;53.868;10.728;2023-04-25T12:02:59;7.50;99.90
70368;DHT22;57789;53.868;10.728;2023-04-25T12:05:30;7.50;99.90
70368;DHT22;57789;53.868;10.728;2023-04-25T12:08:09;7.50;99.90
70368;DHT22;57789;53.868;10.728;2023-04-25T12:10:38;7.60;99.90
70368;DHT22;57789;53.868;10.728;2023-04-25T12:13:23;7.60;99.90
70368;DHT22;57789;53.868;10.728;2023-04-25T12:15:49;7.70;99.90
70368;DHT22;57789;53.868;10.728;2023-04-25T12:18:19;7.90;99.90
70368;DHT22;57789;53.868;10.728;2023-04-25T12:20:45;8.00;99.90
70368;DHT22;57789;53.868;10.728;2023-04-25T12:23:12;8.30;99.90
70368;DHT22;57789;53.868;10.728;2023-04-25T12:25:42;8.50;99.90
70368;DHT22;57789;53.868;10.728;2023-04-25T12:28:20;8.80;99.90
70368;DHT22;57789;53.868;10.728;2023-04-25T12:30:56;8.80;99.90
70368;DHT22;57789;53.868;10.728;2023-04-25T12:33:27;8.90;99.90
70368;DHT22;57789;53.868;10.728;2023-04-25T12:35:57;9.60;99.90
70368;DHT22;57789;53.868;10.728;2023-04-25T12:38:35;10.60;99.90
70368;DHT22;57789;53.868;10.728;2023-04-25T12:41:01;10.90;99.90
70368;DHT22;57789;53.868;10.728;2023-04-25T12:43:27;10.20;99.90
70368;DHT22;57789;53.868;10.728;2023-04-25T12:45:54;10.00;99.90
70368;DHT22;57789;53.868;10.728;2023-04-25T12:48:21;9.60;99.90
70368;DHT22;57789;53.868;10.728;2023-04-25T12:50:48;9.10;99.90
70368;DHT22;57789;53.868;10.728;2023-04-25T12:53:15;8.90;99.90
70368;DHT22;57789;53.868;10.728;2023-04-25T12:55:41;7.70;99.90
70368;DHT22;57789;53.868;10.728;2023-04-25T12:58:07;6.70;99.90
70368;DHT22;57789;53.868;10.728;2023-04-25T13:00:33;6.30;99.90
70368;DHT22;57789;53.868;10.728;2023-04-25T13:02:59;6.10;99.90
70368;DHT22;57789;53.868;10.728;2023-04-25T13:05:25;6.30;99.90
70368;DHT22;57789;53.868;10.728;2023-04-25T13:07:54;6.40;99.90
70368;DHT22;57789;53.868;10.728;2023-04-25T13:10:20;6.40;99.90
70368;DHT22;57789;53.868;10.728;2023-04-25T13:12:46;6.60;99.90
70368;DHT22;57789;53.868;10.728;2023-04-25T13:15:12;7.10;99.90
70368;DHT22;57789;53.868;10.728;2023-04-25T13:17:41;7.70;99.90
70368;DHT22;57789;53.868;10.728;2023-04-25T13:20:07;8.10;99.90
70368;DHT22;57789;53.868;10.728;2023-04-25T13:22:37;8.40;99.90
70368;DHT22;57789;53.868;10.728;2023-04-25T13:25:05;8.90;99.90
70368;DHT22;57789;53.868;10.728;2023-04-25T13:27:32;9.40;99.90
70368;DHT22;57789;53.868;10.728;2023-04-25T13:30:00;10.00;99.90
70368;DHT22;57789;53.868;10.728;2023-04-25T13:32:27;9.90;99.90
70368;DHT22;57789;53.868;10.728;2023-04-25T13:34:53;10.00;99.90
70368;DHT22;57789;53.868;10.728;2023-04-25T13:37:19;10.20;99.90
70368;DHT22;57789;53.868;10.728;2023-04-25T13:39:45;10.50;99.90
70368;DHT22;57789;53.868;10.728;2023-04-25T13:42:10;10.90;99.90
70368;DHT22;57789;53.868;10.728;2023-04-25T13:44:36;11.00;99.90
70368;DHT22;57789;53.868;10.728;2023-04-25T13:47:02;11.00;99.90
70368;DHT22;57789;53.868;10.728;2023-04-25T13:49:29;11.40;99.90
70368;DHT22;57789;53.868;10.728;2023-04-25T13:51:56;10.60;99.90
70368;DHT22;57789;53.868;10.728;2023-04-25T13:54:21;10.10;99.90
70368;DHT22;57789;53.868;10.728;2023-04-25T13:56:49;9.80;99.90
70368;DHT22;57789;53.868;10.728;2023-04-25T13:59:15;9.60;99.90
70368;DHT22;57789;53.868;10.728;2023-04-25T14:01:42;9.50;99.90
70368;DHT22;57789;53.868;10.728;2023-04-25T14:04:08;9.40;99.90
70368;DHT22;57789;53.868;10.728;2023-04-25T14:06:34;9.80;99.90
70368;DHT22;57789;53.868;10.728;2023-04-25T14:09:00;10.40;99.90
70368;DHT22;57789;53.868;10.728;2023-04-25T14:11:26;10.50;99.90
70368;DHT22;57789;53.868;10.728;2023-04-25T14:13:52;10.80;99.90
70368;DHT22;57789;53.868;10.728;2023-04-25T14:16:18;11.10;99.90
70368;DHT22;57789;53.868;10.728;2023-04-25T14:18:44;11.20;99.90
70368;DHT22;57789;53.868;10.728;2023-04-25T14:21:09;11.20;99.90
70368;DHT22;57789;53.868;10.728;2023-04-25T14:23:36;11.00;99.90
70368;DHT22;57789;53.868;10.728;2023-04-25T14:26:02;10.40;99.90
70368;DHT22;57789;53.868;10.728;2023-04-25T14:28:28;10.10;99.90
70368;DHT22;57789;53.868;10.728;2023-04-25T14:30:53;10.00;99.90
70368;DHT22;57789;53.868;10.728;2023-04-25T14:33:19;10.30;99.90
70368;DHT22;57789;53.868;10.728;2023-04-25T14:35:45;10.30;99.90
70368;DHT22;57789;53.868;10.728;2023-04-25T14:38:11;10.20;99.90
70368;DHT22;57789;53.868;10.728;2023-04-25T14:40:37;9.70;99.90
70368;DHT22;57789;53.868;10.728;2023-04-25T14:43:03;9.30;99.90
70368;DHT22;57789;53.868;10.728;2023-04-25T14:45:29;9.20;99.90
70368;DHT22;57789;53.868;10.728;2023-04-25T14:47:56;9.10;99.90
70368;DHT22;57789;53.868;10.728;2023-04-25T14:50:22;9.10;99.90
70368;DHT22;57789;53.868;10.728;2023-04-25T14:52:48;8.90;99.90
70368;DHT22;57789;53.868;10.728;2023-04-25T14:55:14;9.20;99.90
70368;DHT22;57789;53.868;10.728;2023-04-25T14:57:40;9.40;99.90
70368;DHT22;57789;53.868;10.728;2023-04-25T15:00:06;9.50;99.90
70368;DHT22;57789;53.868;10.728;2023-04-25T15:02:38;9.70;99.90
70368;DHT22;57789;53.868;10.728;2023-04-25T15:05:04;9.90;99.90
70368;DHT22;57789;53.868;10.728;2023-04-25T15:07:30;10.40;99.90
70368;DHT22;57789;53.868;10.728;2023-04-25T15:09:56;11.30;99.90
70368;DHT22;57789;53.868;10.728;2023-04-25T15:12:23;11.30;99.90
70368;DHT22;57789;53.868;10.728;2023-04-25T15:14:51;11.00;99.90
70368;DHT22;57789;53.868;10.728;2023-04-25T15:17:17;10.80;99.90
70368;DHT22;57789;53.868;10.728;2023-04-25T15:19:43;10.80;99.90
70368;DHT22;57789;53.868;10.728;2023-04-25T15:22:09;10.60;99.90
70368;DHT22;57789;53.868;10.728;2023-04-25T15:24:35;10.10;99.90
70368;DHT22;57789;53.868;10.728;2023-04-25T15:27:01;9.70;99.90
70368;DHT22;57789;53.868;10.728;2023-04-25T15:29:28;9.60;99.90
70368;DHT22;57789;53.868;10.728;2023-04-25T15:31:54;9.60;99.90
70368;DHT22;57789;53.868;10.728;2023-04-25T15:34:20;9.20;99.90
70368;DHT22;57789;53.868;10.728;2023-04-25T15:36:45;8.70;99.90
70368;DHT22;57789;53.868;10.728;2023-04-25T15:39:11;8.80;99.90
70368;DHT22;57789;53.868;10.728;2023-04-25T15:41:37;9.40;99.90
70368;DHT22;57789;53.868;10.728;2023-04-25T15:44:03;9.70;99.90
70368;DHT22;57789;53.868;10.728;2023-04-25T15:46:29;10.10;99.90
70368;DHT22;57789;53.868;10.728;2023-04-25T15:48:55;9.70;99.90